createdAt,value
2019-03-10T00:03:31.971Z,64.97
2019-03-10T00:05:59.177Z,64.25
2019-03-10T00:11:27.954Z,63.11
2019-03-10T00:13:55.468Z,64.91
2019-03-10T00:16:22.646Z,64.73
2019-03-10T00:21:43.028Z,63.48
2019-03-10T00:24:10.267Z,62.29
2019-03-10T00:26:56.791Z,60.99
2019-03-10T00:29:24.002Z,60.68
2019-03-10T00:38:24.632Z,60.56
2019-03-10T00:41:30.967Z,60.91
2019-03-10T00:44:26.292Z,62.20
2019-03-10T00:47:32.287Z,61.21
2019-03-10T00:50:49.814Z,60.69
2019-03-10T00:56:51.121Z,60.89
2019-03-10T00:59:18.326Z,61.14
2019-03-10T01:01:45.923Z,61.35
2019-03-10T01:07:55.459Z,61.98
2019-03-10T01:10:22.642Z,61.53
2019-03-10T01:13:21.579Z,61.53
2019-03-10T01:22:12.979Z,60.06
2019-03-10T01:24:52.619Z,59.55
2019-03-10T01:27:19.837Z,60.38
2019-03-10T01:29:47.294Z,61.01
2019-03-10T01:32:53.460Z,61.47
2019-03-10T01:35:42.583Z,61.96
2019-03-10T01:38:59.861Z,62.43
2019-03-10T01:41:27.057Z,62.07
2019-03-10T01:46:55.562Z,61.81
2019-03-10T01:49:22.771Z,62.37
2019-03-10T01:52:30.793Z,62.12
2019-03-10T01:54:57.888Z,62.35
2019-03-10T02:00:46.455Z,62.77
2019-03-10T02:03:32.958Z,63.11
2019-03-10T02:06:00.146Z,62.79
2019-03-10T02:08:27.366Z,62.48
2019-03-10T02:10:54.580Z,63.23
2019-03-10T02:16:14.630Z,62.83
2019-03-10T02:18:42.144Z,62.88
2019-03-10T02:21:09.317Z,63.19
2019-03-10T02:23:36.907Z,63.58
2019-03-10T02:32:45.356Z,63.72
2019-03-10T02:35:12.549Z,64.01
2019-03-10T02:37:39.736Z,64.03
2019-03-10T02:40:48.191Z,64.09
2019-03-10T02:43:15.352Z,64.12
2019-03-10T02:45:42.463Z,64.79
2019-03-10T02:48:41.400Z,65.46
2019-03-10T02:54:29.258Z,64.88
2019-03-10T02:56:56.460Z,64.21
2019-03-10T03:02:24.783Z,63.76
2019-03-10T03:04:51.944Z,63.26
2019-03-10T03:07:19.166Z,63.39
2019-03-10T03:09:46.396Z,63.72
2019-03-10T03:12:13.583Z,64.24
2019-03-10T03:14:40.744Z,64.40
2019-03-10T03:17:27.396Z,65.07
2019-03-10T03:20:14.055Z,65.74
2019-03-10T03:22:52.911Z,65.65
2019-03-10T03:25:20.118Z,65.30
2019-03-10T03:28:06.925Z,65.49
2019-03-10T03:30:34.066Z,65.40
2019-03-10T03:33:20.743Z,65.63
2019-03-10T03:36:29.518Z,65.51
2019-03-10T03:39:35.639Z,65.59
2019-03-10T03:42:02.782Z,66.08
2019-03-10T03:44:30.289Z,66.82
2019-03-10T03:46:57.527Z,67.01
2019-03-10T03:52:57.167Z,68.25
2019-03-10T03:55:24.414Z,69.17
2019-03-10T03:58:38.880Z,69.59
2019-03-10T04:01:25.705Z,70.51
2019-03-10T04:04:12.367Z,71.43
2019-03-10T04:06:39.527Z,72.42
2019-03-10T04:09:48.110Z,73.34
2019-03-10T04:12:15.256Z,73.56
2019-03-10T04:14:42.441Z,74.65
2019-03-10T04:17:09.688Z,75.37
2019-03-10T04:19:56.645Z,76.23
2019-03-10T04:22:31.118Z,77.04
2019-03-10T04:24:58.294Z,77.37
2019-03-10T04:27:25.464Z,77.24
2019-03-10T04:29:52.722Z,77.57
2019-03-10T04:32:19.952Z,77.11
2019-03-10T04:35:06.866Z,77.77
2019-03-10T04:37:34.028Z,78.49
2019-03-10T04:43:34.966Z,80.44
2019-03-10T04:46:02.137Z,80.35
2019-03-10T04:48:50.600Z,80.63
2019-03-10T04:51:17.785Z,80.66
2019-03-10T04:53:44.954Z,81.12
2019-03-10T04:56:31.731Z,81.63
2019-03-10T05:01:58.335Z,82.63
2019-03-10T05:04:25.935Z,82.95
2019-03-10T05:06:53.179Z,83.25
2019-03-10T05:09:20.453Z,83.69
2019-03-10T05:11:47.645Z,84.07
2019-03-10T05:14:14.918Z,84.28
2019-03-10T05:16:42.246Z,84.83
2019-03-10T05:19:10.197Z,85.00
2019-03-10T05:21:37.519Z,85.21
2019-03-10T05:24:09.485Z,85.40
2019-03-10T05:26:36.703Z,85.66
2019-03-10T05:29:03.969Z,86.00
2019-03-10T05:31:31.217Z,86.61
2019-03-10T05:33:58.334Z,86.75
2019-03-10T05:36:25.883Z,86.79
2019-03-10T05:38:53.762Z,86.83
2019-03-10T05:41:21.130Z,87.09
2019-03-10T05:43:51.341Z,87.32
2019-03-10T05:46:18.657Z,87.50
2019-03-10T05:48:45.885Z,87.42
2019-03-10T05:51:13.121Z,87.29
2019-03-10T05:53:40.355Z,87.37
2019-03-10T05:56:07.881Z,87.43
2019-03-10T05:58:35.477Z,87.34
2019-03-10T06:01:14.461Z,87.39
2019-03-10T06:04:01.117Z,87.63
2019-03-10T06:06:30.089Z,87.90
2019-03-10T06:12:31.764Z,88.45
2019-03-10T06:14:58.866Z,88.21
2019-03-10T06:17:26.083Z,88.08
2019-03-10T06:19:53.612Z,88.02
2019-03-10T06:22:40.223Z,87.69
2019-03-10T06:28:22.495Z,87.63
2019-03-10T06:30:49.723Z,87.07
2019-03-10T06:33:16.908Z,87.25
2019-03-10T06:36:06.864Z,87.57
2019-03-10T06:38:34.009Z,87.57
2019-03-10T06:41:01.513Z,86.78
2019-03-10T06:43:28.789Z,86.69
2019-03-10T06:45:56.239Z,87.08
2019-03-10T06:48:23.396Z,86.91
2019-03-10T06:50:50.571Z,86.46
2019-03-10T06:53:17.711Z,86.66
2019-03-10T06:55:44.887Z,86.42
2019-03-10T06:58:12.062Z,86.56
2019-03-10T07:00:39.238Z,86.69
2019-03-10T07:03:06.702Z,86.41
2019-03-10T07:05:33.805Z,86.37
2019-03-10T07:08:01.113Z,86.45
2019-03-10T07:10:28.290Z,86.84
2019-03-10T07:12:55.404Z,86.91
2019-03-10T07:15:22.648Z,86.88
2019-03-10T07:17:49.708Z,86.66
2019-03-10T07:20:16.909Z,86.58
2019-03-10T07:22:44.115Z,86.16
2019-03-10T07:25:11.285Z,86.31
2019-03-10T07:27:47.984Z,86.56
2019-03-10T07:30:34.921Z,86.44
2019-03-10T07:33:21.687Z,86.14
2019-03-10T07:36:09.987Z,86.12
2019-03-10T07:38:46.839Z,86.18
2019-03-10T07:41:33.615Z,86.21
2019-03-10T07:44:13.142Z,86.11
2019-03-10T07:47:15.286Z,85.51
2019-03-10T07:50:02.347Z,85.91
2019-03-10T07:52:49.342Z,86.50
2019-03-10T07:55:36.192Z,85.90
2019-03-10T08:01:42.947Z,86.30
2019-03-10T08:07:30.930Z,86.18
2019-03-10T08:10:17.754Z,86.18
2019-03-10T08:13:25.846Z,85.04
2019-03-10T08:16:32.027Z,84.81
2019-03-10T08:19:40.067Z,84.37
2019-03-10T08:22:26.841Z,83.71
2019-03-10T08:25:13.606Z,83.32
2019-03-10T08:28:02.006Z,83.31
2019-03-10T08:31:08.922Z,82.26
2019-03-10T08:33:55.763Z,82.31
2019-03-10T08:37:03.703Z,81.94
2019-03-10T08:43:24.580Z,80.40
2019-03-10T08:49:31.900Z,79.26
2019-03-10T08:52:04.243Z,78.08
2019-03-10T08:54:51.098Z,77.92
2019-03-10T08:57:38.008Z,77.97
2019-03-10T09:03:26.855Z,74.80
2019-03-10T09:06:13.895Z,74.12
2019-03-10T09:09:00.681Z,73.57
2019-03-10T09:14:47.621Z,73.86
2019-03-10T09:17:21.206Z,71.92
2019-03-10T09:20:29.282Z,71.44
2019-03-10T09:23:16.048Z,72.11
2019-03-10T09:26:02.841Z,71.20
2019-03-10T09:31:42.610Z,70.98
2019-03-10T09:34:29.255Z,70.17
2019-03-10T09:40:36.701Z,71.05
2019-03-10T09:46:58.198Z,71.26
2019-03-10T09:49:44.869Z,71.63
2019-03-10T09:52:31.957Z,69.54
2019-03-10T09:58:10.961Z,68.80
2019-03-10T10:04:31.534Z,72.28
2019-03-10T10:10:38.688Z,71.27
2019-03-10T10:13:44.932Z,67.86
2019-03-10T10:19:58.488Z,60.40
2019-03-10T10:22:45.212Z,59.73
2019-03-10T10:25:53.289Z,58.25
2019-03-10T10:28:40.042Z,58.50
2019-03-10T10:31:26.789Z,57.79
2019-03-10T10:34:33.349Z,56.68
2019-03-10T10:37:39.695Z,56.52
2019-03-10T10:40:26.590Z,57.89
2019-03-10T10:46:22.955Z,55.63
2019-03-10T10:49:09.860Z,54.12
2019-03-10T10:55:11.307Z,57.63
2019-03-10T10:57:58.034Z,60.75
2019-03-10T11:00:44.901Z,62.28
2019-03-10T11:03:50.074Z,64.12
2019-03-10T11:06:30.209Z,63.57
2019-03-10T11:09:26.133Z,64.11
2019-03-10T11:12:16.231Z,63.51
2019-03-10T11:15:12.206Z,63.29
2019-03-10T11:17:56.782Z,63.60
2019-03-10T11:20:46.566Z,61.92
2019-03-10T11:23:19.377Z,59.43
2019-03-10T11:26:08.405Z,58.30
2019-03-10T11:29:02.683Z,58.07
2019-03-10T11:31:50.662Z,58.00
2019-03-10T11:34:43.587Z,58.44
2019-03-10T11:37:48.958Z,58.94
2019-03-10T11:40:34.439Z,59.58
2019-03-10T11:43:27.107Z,61.50
2019-03-10T11:46:19.213Z,61.63
2019-03-10T11:48:57.483Z,62.55
2019-03-10T11:51:59.414Z,62.56
2019-03-10T11:55:01.253Z,60.78
2019-03-10T11:57:38.527Z,57.63
2019-03-10T12:00:27.541Z,57.36
2019-03-10T12:03:04.481Z,55.52
2019-03-10T12:06:03.261Z,54.10
2019-03-10T12:08:47.820Z,53.77
2019-03-10T12:11:15.470Z,52.96
2019-03-10T12:13:43.095Z,55.56
2019-03-10T12:16:10.324Z,58.50
2019-03-10T12:18:37.617Z,58.12
2019-03-10T12:21:04.864Z,58.89
2019-03-10T12:23:32.076Z,59.05
2019-03-10T12:25:59.289Z,59.64
2019-03-10T12:28:26.579Z,59.07
2019-03-10T12:30:54.292Z,58.92
2019-03-10T12:33:21.901Z,56.12
2019-03-10T12:35:49.419Z,59.68
2019-03-10T12:38:16.935Z,61.54
2019-03-10T12:40:44.100Z,60.02
2019-03-10T12:43:11.416Z,58.55
2019-03-10T12:45:38.716Z,57.37
2019-03-10T12:48:05.812Z,56.98
2019-03-10T12:50:32.944Z,55.76
2019-03-10T12:53:00.161Z,53.60
2019-03-10T12:55:27.352Z,51.94
2019-03-10T12:57:54.642Z,52.39
2019-03-10T13:00:21.872Z,53.26
2019-03-10T13:02:49.250Z,52.48
2019-03-10T13:05:16.541Z,50.89
2019-03-10T13:07:43.735Z,50.45
2019-03-10T13:10:12.683Z,51.30
2019-03-10T13:12:40.150Z,50.71
2019-03-10T13:15:08.315Z,50.84
2019-03-10T13:17:36.620Z,50.06
2019-03-10T13:20:04.428Z,48.75
2019-03-10T13:22:32.065Z,48.28
2019-03-10T13:24:59.665Z,48.51
2019-03-10T13:27:26.923Z,48.55
2019-03-10T13:29:54.472Z,46.92
2019-03-10T13:32:22.011Z,45.00
2019-03-10T13:34:49.386Z,43.55
2019-03-10T13:37:17.124Z,41.64
2019-03-10T13:39:44.368Z,41.28
2019-03-10T13:42:11.659Z,43.33
2019-03-10T13:44:38.926Z,42.82
2019-03-10T13:47:06.564Z,42.21
2019-03-10T13:49:33.654Z,40.70
2019-03-10T13:52:01.196Z,38.86
2019-03-10T13:54:28.462Z,38.75
2019-03-10T13:56:57.989Z,38.81
2019-03-10T13:59:25.318Z,38.18
2019-03-10T14:01:53.092Z,37.29
2019-03-10T14:04:20.604Z,36.31
2019-03-10T14:06:47.923Z,36.47
2019-03-10T14:09:15.326Z,37.02
2019-03-10T14:11:42.812Z,36.50
2019-03-10T14:14:10.140Z,36.79
2019-03-10T14:16:37.378Z,36.19
2019-03-10T14:19:04.783Z,36.93
2019-03-10T14:21:32.606Z,37.31
2019-03-10T14:24:00.221Z,37.47
2019-03-10T14:26:27.541Z,36.23
2019-03-10T14:28:54.830Z,37.41
2019-03-10T14:31:21.949Z,36.37
2019-03-10T14:33:49.152Z,35.40
2019-03-10T14:36:16.475Z,36.61
2019-03-10T14:38:43.665Z,36.70
2019-03-10T14:41:10.936Z,37.61
2019-03-10T14:43:38.580Z,37.73
2019-03-10T14:46:06.140Z,38.32
2019-03-10T14:48:33.394Z,38.24
2019-03-10T14:51:00.835Z,37.92
2019-03-10T14:53:28.036Z,38.39
2019-03-10T14:55:55.235Z,37.18
2019-03-10T14:58:22.495Z,39.25
2019-03-10T15:00:49.686Z,39.58
2019-03-10T15:03:16.918Z,38.63
2019-03-10T15:05:44.117Z,39.09
2019-03-10T15:08:11.414Z,38.91
2019-03-10T15:10:38.698Z,37.81
2019-03-10T15:13:05.967Z,37.19
2019-03-10T15:15:33.276Z,37.73
2019-03-10T15:18:02.757Z,37.25
2019-03-10T15:20:29.502Z,36.87
2019-03-10T15:22:56.835Z,37.92
2019-03-10T15:25:25.351Z,38.48
2019-03-10T15:27:52.725Z,38.34
2019-03-10T15:30:20.013Z,38.81
2019-03-10T15:32:47.359Z,38.42
2019-03-10T15:35:15.809Z,39.49
2019-03-10T15:37:43.067Z,36.86
2019-03-10T15:40:11.548Z,36.43
2019-03-10T15:42:38.812Z,37.36
2019-03-10T15:45:07.219Z,36.13
2019-03-10T15:47:34.515Z,35.06
2019-03-10T15:50:01.769Z,36.26
2019-03-10T15:52:30.594Z,35.82
2019-03-10T15:54:57.706Z,34.92
2019-03-10T15:57:25.061Z,34.66
2019-03-10T15:59:52.348Z,35.83
2019-03-10T16:02:19.597Z,35.27
2019-03-10T16:04:46.944Z,35.27
2019-03-10T16:07:14.287Z,35.07
2019-03-10T16:09:41.547Z,35.31
2019-03-10T16:12:09.411Z,36.10
2019-03-10T16:14:36.634Z,37.07
2019-03-10T16:17:03.863Z,36.46
2019-03-10T16:19:31.093Z,36.09
2019-03-10T16:21:58.316Z,34.47
2019-03-10T16:24:25.623Z,35.32
2019-03-10T16:26:52.956Z,34.86
2019-03-10T16:29:20.210Z,34.31
2019-03-10T16:31:47.424Z,35.97
2019-03-10T16:34:14.740Z,35.40
2019-03-10T16:36:42.340Z,33.75
2019-03-10T16:39:10.303Z,33.87
2019-03-10T16:41:37.469Z,35.80
2019-03-10T16:44:04.735Z,34.53
2019-03-10T16:46:31.940Z,35.84
2019-03-10T16:48:59.264Z,36.26
2019-03-10T16:51:26.474Z,37.41
2019-03-10T16:53:53.683Z,36.14
2019-03-10T16:56:30.482Z,36.33
2019-03-10T16:58:58.241Z,37.05
2019-03-10T17:01:25.715Z,37.32
2019-03-10T17:03:52.945Z,36.80
2019-03-10T17:06:20.111Z,36.66
2019-03-10T17:08:48.337Z,35.88
2019-03-10T17:11:15.550Z,34.83
2019-03-10T17:13:43.034Z,34.46
2019-03-10T17:16:10.215Z,35.18
2019-03-10T17:18:37.507Z,35.45
2019-03-10T17:21:04.663Z,34.02
2019-03-10T17:23:31.776Z,34.85
2019-03-10T17:25:59.037Z,35.06
2019-03-10T17:28:26.217Z,34.95
2019-03-10T17:30:53.497Z,35.76
2019-03-10T17:33:21.238Z,35.54
2019-03-10T17:35:48.462Z,36.13
2019-03-10T17:38:15.823Z,35.17
2019-03-10T17:40:43.029Z,36.13
2019-03-10T17:43:10.199Z,35.53
2019-03-10T17:45:37.402Z,36.53
2019-03-10T17:48:04.827Z,36.23
2019-03-10T17:50:31.931Z,36.18
2019-03-10T17:52:59.478Z,44.30
2019-03-10T17:55:26.747Z,49.03
2019-03-10T17:57:54.017Z,51.78
2019-03-10T18:00:22.859Z,53.54
2019-03-10T18:02:50.161Z,54.68
2019-03-10T18:05:17.239Z,56.69
2019-03-10T18:07:45.206Z,58.45
2019-03-10T18:10:12.720Z,59.71
2019-03-10T18:12:40.300Z,61.21
2019-03-10T18:15:09.250Z,62.92
2019-03-10T18:17:36.715Z,64.12
2019-03-10T18:20:05.237Z,64.37
2019-03-10T18:22:32.515Z,63.70
2019-03-10T18:25:00.171Z,64.20
2019-03-10T18:27:27.625Z,63.85
2019-03-10T18:29:54.794Z,62.53
2019-03-10T18:32:22.009Z,62.69
2019-03-10T18:34:49.415Z,63.47
2019-03-10T18:37:16.983Z,63.82
2019-03-10T18:39:44.431Z,62.99
2019-03-10T18:42:11.672Z,63.84
2019-03-10T18:44:39.032Z,64.02
2019-03-10T18:47:06.178Z,64.17
2019-03-10T18:49:34.259Z,63.85
2019-03-10T18:52:01.371Z,63.05
2019-03-10T18:54:28.637Z,63.00
2019-03-10T18:56:56.229Z,62.88
2019-03-10T18:59:23.399Z,62.95
2019-03-10T19:01:50.637Z,63.09
2019-03-10T19:04:18.108Z,61.71
2019-03-10T19:06:45.259Z,61.92
2019-03-10T19:09:12.494Z,60.75
2019-03-10T19:11:39.847Z,60.91
2019-03-10T19:14:07.038Z,60.74
2019-03-10T19:16:34.478Z,59.63
2019-03-10T19:19:01.788Z,60.12
2019-03-10T19:21:29.086Z,60.14
2019-03-10T19:23:56.350Z,59.93
2019-03-10T19:26:23.570Z,60.00
2019-03-10T19:28:50.904Z,60.15
2019-03-10T19:31:18.286Z,59.70
2019-03-10T19:33:45.368Z,59.96
2019-03-10T19:36:12.692Z,58.85
2019-03-10T19:38:39.912Z,58.82
2019-03-10T19:41:07.126Z,59.17
2019-03-10T19:43:34.342Z,59.39
2019-03-10T19:46:01.581Z,58.92
2019-03-10T19:48:28.762Z,59.60
2019-03-10T19:50:55.868Z,59.33
2019-03-10T19:53:23.069Z,58.08
2019-03-10T19:55:50.314Z,58.59
2019-03-10T19:58:17.625Z,58.82
2019-03-10T20:00:44.826Z,58.86
2019-03-10T20:03:12.347Z,58.98
2019-03-10T20:05:39.454Z,58.04
2019-03-10T20:08:06.693Z,57.80
2019-03-10T20:10:33.761Z,58.32
2019-03-10T20:13:00.967Z,56.83
2019-03-10T20:15:28.073Z,57.17
2019-03-10T20:17:55.254Z,57.36
2019-03-10T20:20:22.469Z,55.65
2019-03-10T20:22:50.063Z,54.52
2019-03-10T20:25:17.349Z,55.91
2019-03-10T20:27:44.742Z,56.65
2019-03-10T20:30:14.582Z,55.03
2019-03-10T20:32:41.906Z,56.08
2019-03-10T20:35:09.514Z,56.98
2019-03-10T20:37:37.116Z,57.71
2019-03-10T20:40:04.510Z,57.93
2019-03-10T20:42:31.740Z,58.93
2019-03-10T20:44:58.985Z,59.32
2019-03-10T20:47:26.249Z,60.09
2019-03-10T20:49:53.593Z,59.82
2019-03-10T20:52:20.789Z,60.40
2019-03-10T20:54:48.133Z,60.35
2019-03-10T20:57:15.390Z,60.46
2019-03-10T20:59:42.616Z,59.84
2019-03-10T21:02:10.408Z,59.39
2019-03-10T21:04:38.524Z,59.57
2019-03-10T21:07:05.724Z,60.57
2019-03-10T21:09:32.929Z,60.53
2019-03-10T21:12:00.132Z,61.35
2019-03-10T21:14:27.634Z,61.18
2019-03-10T21:16:54.831Z,61.93
2019-03-10T21:19:22.523Z,62.49
2019-03-10T21:21:50.071Z,61.49
2019-03-10T21:24:17.340Z,62.17
2019-03-10T21:26:44.535Z,62.82
2019-03-10T21:29:12.097Z,63.30
2019-03-10T21:31:39.309Z,63.61
2019-03-10T21:34:06.782Z,63.57
2019-03-10T21:36:34.329Z,63.29
2019-03-10T21:39:03.783Z,64.00
2019-03-10T21:41:31.459Z,64.52
2019-03-10T21:43:58.871Z,64.77
2019-03-10T21:46:29.772Z,65.58
2019-03-10T21:48:57.029Z,64.86
2019-03-10T21:51:24.240Z,64.18
2019-03-10T21:53:51.546Z,64.28
2019-03-10T21:56:19.069Z,64.96
2019-03-10T21:58:46.659Z,63.95
2019-03-10T22:01:13.809Z,64.45
2019-03-10T22:03:40.991Z,64.87
2019-03-10T22:06:08.259Z,65.01
2019-03-10T22:08:35.845Z,64.95
2019-03-10T22:11:03.132Z,63.76
2019-03-10T22:13:30.361Z,62.89
2019-03-10T22:15:57.538Z,62.32
2019-03-10T22:18:24.811Z,62.29
2019-03-10T22:20:52.145Z,67.62
2019-03-10T22:23:19.407Z,71.35
2019-03-10T22:25:46.589Z,73.95
2019-03-10T22:28:14.284Z,72.26
2019-03-10T22:30:41.571Z,74.67
2019-03-10T22:33:08.622Z,75.44
2019-03-10T22:35:36.047Z,75.31
2019-03-10T22:38:03.447Z,77.35
2019-03-10T22:40:30.603Z,78.61
2019-03-10T22:42:57.871Z,80.19
2019-03-10T22:45:25.039Z,80.81
2019-03-10T22:47:52.098Z,81.17
2019-03-10T22:50:19.292Z,81.77
2019-03-10T22:52:46.878Z,82.77
2019-03-10T22:55:14.946Z,83.58
2019-03-10T22:57:42.360Z,83.69
2019-03-10T23:00:14.477Z,83.66
2019-03-10T23:02:41.947Z,83.98
2019-03-10T23:05:09.169Z,83.90
2019-03-10T23:07:36.337Z,84.29
2019-03-10T23:10:05.113Z,84.80
2019-03-10T23:12:32.436Z,85.30
2019-03-10T23:14:59.609Z,85.81
2019-03-10T23:17:26.755Z,86.05
2019-03-10T23:19:54.332Z,86.42
2019-03-10T23:22:21.551Z,86.82
2019-03-10T23:24:48.759Z,86.99
2019-03-10T23:27:16.063Z,87.09
2019-03-10T23:29:43.235Z,86.79
2019-03-10T23:32:10.447Z,86.72
2019-03-10T23:34:38.130Z,86.79
2019-03-10T23:37:05.309Z,86.72
2019-03-10T23:39:32.646Z,86.62
2019-03-10T23:41:59.848Z,86.48
2019-03-10T23:44:27.310Z,86.39
2019-03-10T23:46:54.568Z,85.89
2019-03-10T23:49:21.993Z,85.21
2019-03-10T23:51:49.245Z,84.74
2019-03-10T23:54:16.783Z,84.66
2019-03-10T23:56:43.964Z,84.54
2019-03-10T23:59:11.390Z,83.83
